Time;durP1;ratioP1;P1;durP2;ratioP2;P2;SDS_P1;SDS_P2;PMS_P1;PMS_P2;Temp;Humidity;BMP_temperature;BMP_pressure;BME280_temperature;BME280_humidity;BME280_pressure;Samples;Min_cycle;Max_cycle;Signal;HPM_P1;HPM_P2
2022/07/03 00:04:37;;;;;;;8.13;5.85;;;16.40;99.90;;;;;;10361807;28;20252;-79
2022/07/03 00:09:58;;;;;;;7.40;5.63;;;16.40;1.00;;;;;;10361583;28;20415;-79
2022/07/03 00:15:20;;;;;;;6.82;5.25;;;16.30;1.00;;;;;;10361254;28;20220;-79
2022/07/03 00:20:48;;;;;;;9.30;6.22;;;16.20;1.00;;;;;;10361290;28;20265;-79
2022/07/03 00:26:11;;;;;;;6.90;4.60;;;16.30;1.00;;;;;;10359517;28;20212;-79
2022/07/03 00:31:33;;;;;;;8.27;5.22;;;16.20;1.00;;;;;;10360724;28;20201;-79
2022/07/03 00:36:59;;;;;;;10.70;5.05;;;16.20;27.10;;;;;;10359577;28;20209;-78
2022/07/03 00:42:21;;;;;;;7.13;5.78;;;16.10;1.00;;;;;;10360360;28;20198;-79
2022/07/03 00:47:43;;;;;;;10.27;5.13;;;16.10;1.00;;;;;;10372458;28;20296;-79
2022/07/03 00:53:08;;;;;;;11.25;5.45;;;16.00;1.00;;;;;;10345083;28;20547;-77
2022/07/03 00:58:33;;;;;;;8.32;5.25;;;15.90;99.90;;;;;;10376279;28;20202;-79
2022/07/03 01:04:07;;;;;;;7.07;5.10;;;15.90;1.00;;;;;;10359610;28;20221;-76
2022/07/03 01:10:04;;;;;;;6.70;4.90;;;15.90;1.00;;;;;;10359250;28;20270;-79
2022/07/03 01:15:34;;;;;;;6.22;5.00;;;15.90;99.90;;;;;;10358002;28;20205;-79
2022/07/03 01:21:05;;;;;;;8.32;5.68;;;15.80;1.00;;;;;;10358975;28;20206;-79
2022/07/03 01:26:30;;;;;;;7.72;5.50;;;15.70;1.00;;;;;;10358448;28;20435;-78
2022/07/03 01:31:54;;;;;;;7.43;5.55;;;15.70;99.90;;;;;;10373617;28;20251;-79
2022/07/03 01:37:22;;;;;;;8.77;5.47;;;15.60;1.00;;;;;;10358145;28;20215;-79
2022/07/03 01:42:45;;;;;;;10.25;6.03;;;15.50;1.00;;;;;;10358153;28;20197;-78
2022/07/03 01:48:07;;;;;;;8.52;5.45;;;15.50;1.00;;;;;;10342899;28;20286;-79
2022/07/03 01:53:30;;;;;;;6.22;4.75;;;15.50;99.90;;;;;;10356387;28;20292;-78
2022/07/03 01:58:52;;;;;;;6.65;4.38;;;15.50;1.00;;;;;;10345715;28;20220;-79
2022/07/03 02:04:33;;;;;;;6.75;4.57;;;15.50;99.90;;;;;;10369702;28;20191;-79
2022/07/03 02:10:02;;;;;;;7.72;5.03;;;15.40;99.90;;;;;;10369628;28;20295;-79
2022/07/03 02:15:34;;;;;;;8.68;5.40;;;15.50;1.00;;;;;;10355787;28;20264;-79
2022/07/03 02:21:07;;;;;;;18.60;11.48;;;15.60;99.90;;;;;;10356592;28;20201;-78
2022/07/03 02:26:33;;;;;;;13.20;6.93;;;15.50;99.90;;;;;;10356404;28;20524;-79
2022/07/03 02:31:59;;;;;;;7.68;5.75;;;15.40;1.00;;;;;;10356216;28;20192;-79
2022/07/03 02:37:23;;;;;;;8.27;5.70;;;15.30;1.00;;;;;;10355664;28;20227;-77
2022/07/03 02:42:44;;;;;;;7.65;5.57;;;15.30;1.00;;;;;;10354813;28;20287;-79
2022/07/03 02:48:24;;;;;;;9.45;5.65;;;15.20;1.00;;;;;;10340474;28;20255;-78
2022/07/03 02:54:01;;;;;;;8.38;6.13;;;15.30;1.00;;;;;;10355208;28;20205;-79
2022/07/03 02:59:55;;;;;;;10.23;6.30;;;15.30;99.30;;;;;;10371331;28;20215;-78
2022/07/03 03:05:21;;;;;;;7.93;5.57;;;15.30;1.00;;;;;;10357009;28;20267;-79
2022/07/03 03:10:44;;;;;;;11.73;5.75;;;15.30;1.00;;;;;;10355266;28;20293;-79
2022/07/03 03:16:07;;;;;;;9.50;4.68;;;15.30;1.00;;;;;;10355147;28;20223;-80
2022/07/03 03:21:37;;;;;;;7.30;4.82;;;15.40;95.40;;;;;;10369718;28;20226;-79
2022/07/03 03:26:59;;;;;;;7.32;4.65;;;15.40;99.90;;;;;;10354575;28;20196;-79
2022/07/03 03:32:21;;;;;;;4.20;3.30;;;15.40;99.90;;;;;;10353913;28;20200;-79
2022/07/03 03:37:45;;;;;;;6.18;3.63;;;15.50;1.00;;;;;;10354151;28;20277;-79
2022/07/03 03:50:02;;;;;;;6.35;3.53;;;15.50;99.90;;;;;;10312718;28;20293;-79
2022/07/03 03:55:24;;;;;;;6.43;4.07;;;15.70;99.90;;;;;;10282673;28;20221;-78
2022/07/03 04:00:46;;;;;;;5.30;3.90;;;15.80;1.00;;;;;;10308175;28;20500;-79
2022/07/03 04:06:08;;;;;;;5.68;4.05;;;15.90;1.00;;;;;;10313643;28;20483;-79
2022/07/03 04:11:29;;;;;;;7.45;4.57;;;16.00;1.00;;;;;;10313594;28;20267;-78
2022/07/03 04:16:50;;;;;;;6.68;4.50;;;16.00;1.00;;;;;;10312635;28;20227;-76
2022/07/03 04:22:11;;;;;;;11.00;5.85;;;15.90;99.90;;;;;;10312575;28;20261;-77
2022/07/03 04:27:33;;;;;;;14.82;5.82;;;15.90;99.90;;;;;;10305755;28;20227;-77
2022/07/03 04:33:09;;;;;;;12.02;5.95;;;16.00;99.90;;;;;;10305515;28;20252;-78
2022/07/03 04:38:31;;;;;;;11.05;5.70;;;16.20;99.90;;;;;;10305386;28;20488;-79
2022/07/03 04:43:52;;;;;;;9.70;5.72;;;16.20;99.90;;;;;;10319976;28;20208;-78
2022/07/03 04:49:14;;;;;;;13.00;6.60;;;16.30;1.00;;;;;;10318189;28;20263;-80
2022/07/03 04:54:35;;;;;;;7.45;5.40;;;16.50;1.00;;;;;;10332541;28;20265;-75
2022/07/03 04:59:57;;;;;;;8.57;5.10;;;16.60;1.00;;;;;;10304830;28;20255;-77
2022/07/03 05:05:19;;;;;;;11.02;5.15;;;16.70;1.00;;;;;;10317870;28;20211;-76
2022/07/03 05:10:40;;;;;;;8.38;4.88;;;16.80;1.00;;;;;;10317932;28;20225;-79
2022/07/03 05:16:01;;;;;;;8.27;5.05;;;16.90;1.00;;;;;;10331147;28;20264;-79
2022/07/03 05:21:23;;;;;;;11.40;5.22;;;17.00;1.00;;;;;;10303856;28;20282;-77
2022/07/03 05:26:44;;;;;;;5.20;4.00;;;17.10;99.90;;;;;;10322153;28;20201;-79
2022/07/03 05:32:06;;;;;;;6.35;3.70;;;17.20;99.90;;;;;;10318070;28;20543;-79
2022/07/03 05:37:28;;;;;;;4.63;3.47;;;17.30;99.90;;;;;;10316871;28;20212;-79
2022/07/03 05:42:49;;;;;;;7.57;3.85;;;17.60;99.90;;;;;;10317719;28;20381;-78
2022/07/03 05:48:11;;;;;;;5.85;4.00;;;17.70;1.00;;;;;;10344574;28;20251;-80
2022/07/03 05:53:32;;;;;;;8.05;3.50;;;17.90;1.00;;;;;;10356666;28;20232;-78
2022/07/03 05:58:54;;;;;;;5.10;3.50;;;18.00;1.00;;;;;;10374167;28;20285;-80
2022/07/03 06:04:16;;;;;;;3.47;2.78;;;18.20;1.00;;;;;;10356375;28;20252;-78
2022/07/03 06:09:37;;;;;;;4.05;3.10;;;18.40;1.00;;;;;;10372648;28;20237;-80
2022/07/03 06:14:58;;;;;;;7.53;3.42;;;18.60;1.00;;;;;;10356117;28;20204;-80
2022/07/03 06:20:22;;;;;;;4.18;2.70;;;18.90;99.90;;;;;;10369175;28;20205;-77
2022/07/03 06:25:43;;;;;;;6.00;3.00;;;19.00;99.90;;;;;;10356446;28;20190;-79
2022/07/03 06:31:05;;;;;;;5.82;3.20;;;19.30;1.00;;;;;;10355941;28;20476;-76
2022/07/03 06:36:26;;;;;;;4.85;3.00;;;19.50;1.00;;;;;;10355967;28;20450;-79
2022/07/03 06:41:48;;;;;;;5.60;2.47;;;19.90;99.90;;;;;;10356389;28;20202;-79
2022/07/03 06:47:09;;;;;;;4.43;2.42;;;20.40;1.00;;;;;;10368765;28;20256;-77
2022/07/03 06:52:30;;;;;;;4.32;1.70;;;21.00;1.00;;;;;;10355452;28;20200;-79
2022/07/03 06:57:52;;;;;;;5.70;1.80;;;21.70;1.00;;;;;;10372213;28;20285;-77
2022/07/03 07:03:13;;;;;;;4.13;1.20;;;22.60;1.00;;;;;;10355321;28;20201;-76
2022/07/03 07:08:35;;;;;;;2.90;1.73;;;23.10;1.00;;;;;;10355271;28;20237;-79
2022/07/03 07:13:57;;;;;;;3.35;1.40;;;23.70;1.00;;;;;;10354919;28;20198;-80
2022/07/03 07:19:18;;;;;;;1.42;1.08;;;24.30;1.00;;;;;;10355241;28;20203;-79
2022/07/03 07:24:40;;;;;;;2.88;1.60;;;24.60;1.00;;;;;;10353737;28;20201;-80
2022/07/03 07:30:01;;;;;;;3.25;1.63;;;24.70;1.00;;;;;;10353202;28;20232;-78
2022/07/03 07:35:23;;;;;;;2.35;1.75;;;25.10;1.00;;;;;;10353159;28;20213;-79
2022/07/03 07:40:44;;;;;;;3.08;1.38;;;25.60;1.00;;;;;;10354367;28;20212;-79
2022/07/03 07:46:05;;;;;;;2.42;1.73;;;25.90;99.90;;;;;;10354232;28;20221;-79
2022/07/03 07:51:27;;;;;;;2.25;1.30;;;26.30;99.90;;;;;;10354399;28;20241;-81
2022/07/03 07:56:48;;;;;;;1.85;1.20;;;26.60;99.90;;;;;;10355242;28;20259;-81
2022/07/03 08:07:50;;;;;;;1.55;1.08;;;27.20;99.90;;;;;;10320574;28;20211;-81
2022/07/03 08:13:13;;;;;;;1.27;0.90;;;27.50;99.90;;;;;;10320974;28;20515;-80
2022/07/03 08:18:34;;;;;;;1.10;1.00;;;27.70;99.90;;;;;;10320259;28;20206;-80
2022/07/03 08:23:55;;;;;;;1.38;1.25;;;28.30;99.90;;;;;;10320712;28;20193;-77
2022/07/03 08:29:17;;;;;;;2.22;1.23;;;28.50;99.90;;;;;;10319642;28;20289;-81
2022/07/03 08:34:38;;;;;;;1.42;1.10;;;28.70;99.90;;;;;;10324709;28;20193;-78
2022/07/03 08:40:00;;;;;;;2.45;1.42;;;28.90;99.90;;;;;;10373614;28;20197;-79
2022/07/03 08:45:23;;;;;;;2.75;1.38;;;29.00;99.90;;;;;;10359448;28;20221;-79
2022/07/03 08:50:46;;;;;;;1.13;1.00;;;29.10;99.90;;;;;;10360074;28;20539;-80
2022/07/03 08:56:08;;;;;;;2.65;1.50;;;29.70;99.90;;;;;;10370163;28;20193;-79
2022/07/03 09:01:31;;;;;;;2.90;1.88;;;29.60;99.90;;;;;;10363005;28;20202;-80
2022/07/03 09:06:54;;;;;;;4.47;1.60;;;29.40;99.90;;;;;;10359288;28;20198;-79
2022/07/03 09:12:16;;;;;;;2.00;0.90;;;29.80;99.90;;;;;;10359303;28;20229;-78
2022/07/03 09:17:38;;;;;;;2.97;1.30;;;29.70;99.90;;;;;;10357908;28;20206;-79
2022/07/03 09:23:16;;;;;;;4.30;2.80;;;29.90;99.90;;;;;;10358705;28;20266;-78
2022/07/03 09:28:43;;;;;;;2.20;1.10;;;30.30;99.90;;;;;;10358627;28;20217;-78
2022/07/03 09:34:09;;;;;;;1.75;1.00;;;30.20;99.90;;;;;;10357437;28;20220;-77
2022/07/03 09:39:31;;;;;;;0.85;0.77;;;30.40;99.90;;;;;;10358049;28;20527;-79
2022/07/03 09:44:54;;;;;;;1.77;0.85;;;30.70;99.90;;;;;;10357905;28;20382;-79
2022/07/03 09:50:16;;;;;;;3.05;1.00;;;30.80;99.90;;;;;;10356356;28;20304;-76
2022/07/03 09:55:38;;;;;;;1.27;0.70;;;31.00;99.90;;;;;;10364547;28;20200;-81
2022/07/03 10:06:19;;;;;;;1.05;0.80;;;30.80;99.90;;;;;;10356100;28;20264;-80
2022/07/03 10:11:41;;;;;;;3.95;1.00;;;31.10;99.90;;;;;;10356396;28;20271;-76
2022/07/03 10:17:03;;;;;;;1.00;0.70;;;31.60;99.90;;;;;;10357194;28;20200;-79
2022/07/03 10:22:27;;;;;;;3.72;0.82;;;31.50;99.90;;;;;;10356942;28;20198;-78
2022/07/03 10:28:44;;;;;;;1.88;0.88;;;31.30;99.90;;;;;;10369982;28;20248;-79
2022/07/03 10:34:06;;;;;;;1.65;0.80;;;31.20;99.90;;;;;;10271917;28;20218;-77
2022/07/03 10:39:40;;;;;;;1.08;0.75;;;31.50;99.90;;;;;;10273494;28;20425;-78
2022/07/03 10:45:04;;;;;;;2.58;1.40;;;32.00;99.90;;;;;;10272812;28;20447;-80
2022/07/03 10:50:26;;;;;;;2.22;1.98;;;31.80;99.90;;;;;;10273012;28;20234;-78
2022/07/03 10:56:04;;;;;;;1.90;1.00;;;32.20;99.90;;;;;;10279849;28;20265;-77
2022/07/03 11:01:29;;;;;;;2.50;0.80;;;32.00;99.90;;;;;;10241557;28;20215;-79
2022/07/03 11:06:51;;;;;;;0.55;0.55;;;31.70;99.90;;;;;;10237281;28;20221;-78
2022/07/03 11:12:12;;;;;;;1.00;0.80;;;31.90;99.90;;;;;;10313562;28;20297;-79
2022/07/03 11:17:34;;;;;;;1.48;0.80;;;32.20;99.90;;;;;;10313252;28;20206;-77
2022/07/03 11:23:26;;;;;;;2.95;0.95;;;32.40;90.10;;;;;;10313389;28;20204;-78
2022/07/03 11:28:49;;;;;;;1.50;0.90;;;32.20;77.70;;;;;;10329340;28;20241;-78
2022/07/03 11:34:19;;;;;;;2.10;0.88;;;32.00;75.50;;;;;;10319639;28;20206;-78
2022/07/03 11:39:43;;;;;;;0.88;0.80;;;32.10;94.80;;;;;;10348006;28;20201;-77
2022/07/03 11:45:13;;;;;;;1.15;0.70;;;32.30;92.50;;;;;;10364899;28;20205;-77
2022/07/03 11:50:39;;;;;;;1.15;0.75;;;32.50;99.90;;;;;;10327360;28;20256;-78
2022/07/03 11:56:12;;;;;;;0.85;0.50;;;32.50;94.90;;;;;;10321736;28;20213;-79
2022/07/03 12:01:35;;;;;;;0.90;0.77;;;32.00;99.90;;;;;;10321507;28;20278;-77
2022/07/03 12:06:58;;;;;;;1.58;0.95;;;31.60;99.90;;;;;;10321544;28;20197;-79
2022/07/03 12:12:24;;;;;;;0.70;0.70;;;31.40;99.10;;;;;;10320120;28;20234;-80
2022/07/03 12:17:46;;;;;;;2.88;1.10;;;31.20;93.80;;;;;;10319792;28;20229;-80
2022/07/03 12:23:08;;;;;;;0.60;0.60;;;31.40;91.30;;;;;;10306116;28;20244;-77
2022/07/03 12:28:29;;;;;;;2.08;0.70;;;31.50;95.50;;;;;;10320608;28;20220;-77
2022/07/03 12:33:52;;;;;;;0.75;0.70;;;31.50;99.20;;;;;;10319371;28;20221;-78
2022/07/03 12:39:13;;;;;;;1.50;0.90;;;31.20;94.40;;;;;;10280311;28;20199;-79
2022/07/03 12:44:35;;;;;;;0.73;0.60;;;31.10;84.60;;;;;;10279274;28;20207;-77
2022/07/03 12:49:58;;;;;;;1.10;0.90;;;31.10;81.70;;;;;;10317293;28;20268;-77
2022/07/03 12:55:28;;;;;;;1.30;0.82;;;30.90;99.90;;;;;;10343445;28;20189;-77
2022/07/03 13:00:49;;;;;;;1.23;0.77;;;30.40;99.90;;;;;;10368480;28;20413;-79
2022/07/03 13:06:15;;;;;;;1.42;0.73;;;30.50;51.70;;;;;;10359491;28;20552;-79
2022/07/03 13:11:38;;;;;;;4.55;0.90;;;30.90;50.10;;;;;;10358551;28;20445;-80
2022/07/03 13:17:00;;;;;;;2.50;2.15;;;30.80;72.70;;;;;;10359125;28;20209;-77
2022/07/03 13:22:21;;;;;;;1.02;0.65;;;30.70;57.10;;;;;;10358994;28;20209;-80
2022/07/03 13:27:45;;;;;;;1.13;0.90;;;30.50;77.50;;;;;;10358927;28;20264;-78
2022/07/03 13:33:07;;;;;;;1.85;1.02;;;30.60;89.00;;;;;;10357867;28;20217;-80
2022/07/03 13:38:29;;;;;;;1.08;0.80;;;30.40;90.00;;;;;;10357081;28;20530;-77
2022/07/03 13:43:51;;;;;;;0.70;0.70;;;30.40;88.20;;;;;;10357656;28;20194;-81
2022/07/03 13:49:13;;;;;;;1.52;1.10;;;30.40;87.80;;;;;;10357731;28;20241;-76
2022/07/03 13:54:35;;;;;;;0.95;0.82;;;29.90;79.00;;;;;;10329218;28;20206;-77
2022/07/03 13:59:56;;;;;;;1.08;0.73;;;29.60;96.90;;;;;;10339943;28;20205;-78
2022/07/03 14:05:18;;;;;;;2.13;0.80;;;29.50;94.60;;;;;;10355920;28;20209;-79
2022/07/03 14:10:39;;;;;;;1.27;1.00;;;29.60;93.10;;;;;;10357105;28;20237;-78
2022/07/03 14:16:01;;;;;;;1.42;0.70;;;29.20;93.40;;;;;;10356914;28;20220;-78
2022/07/03 14:21:23;;;;;;;1.02;0.80;;;29.20;99.90;;;;;;10357959;28;20264;-77
2022/07/03 14:32:31;;;;;;;0.75;0.70;;;29.20;99.90;;;;;;10362430;28;20268;-79
2022/07/03 14:37:53;;;;;;;0.90;0.75;;;29.10;99.90;;;;;;10355804;28;20428;-80
2022/07/03 14:43:15;;;;;;;1.10;0.77;;;29.00;99.90;;;;;;10356848;28;20193;-77
2022/07/03 14:48:36;;;;;;;1.23;0.88;;;28.50;99.90;;;;;;10357280;28;20467;-78
2022/07/03 14:53:58;;;;;;;1.83;0.90;;;28.30;99.90;;;;;;10354552;28;20260;-80
2022/07/03 14:59:34;;;;;;;0.85;0.85;;;28.30;99.90;;;;;;10372246;28;20277;-77
2022/07/03 15:05:09;;;;;;;1.50;1.40;;;28.40;99.90;;;;;;10354140;28;20198;-78
2022/07/03 15:10:35;;;;;;;2.75;0.82;;;28.20;92.30;;;;;;10354647;28;20292;-80
2022/07/03 15:15:56;;;;;;;1.08;1.00;;;28.00;60.30;;;;;;10353961;28;20390;-80
2022/07/03 15:21:18;;;;;;;0.80;0.70;;;27.90;69.40;;;;;;10353898;28;20205;-79
2022/07/03 15:26:43;;;;;;;1.38;0.82;;;27.60;90.40;;;;;;10354706;28;20194;-77
2022/07/03 15:32:07;;;;;;;1.95;1.00;;;27.40;83.60;;;;;;10353592;28;20237;-76
2022/07/03 15:38:03;;;;;;;0.90;0.90;;;27.30;90.30;;;;;;10354379;28;20246;-80
2022/07/03 15:43:37;;;;;;;1.92;1.02;;;27.00;94.70;;;;;;10354464;28;20190;-80
2022/07/03 15:49:30;;;;;;;1.10;0.98;;;26.80;94.90;;;;;;10353127;28;20458;-77
2022/07/03 15:55:04;;;;;;;1.90;1.05;;;26.80;94.50;;;;;;10354228;28;20209;-77
2022/07/03 16:00:27;;;;;;;2.20;1.20;;;26.80;90.80;;;;;;10366587;28;20209;-79
2022/07/03 16:12:01;;;;;;;1.38;0.80;;;26.70;95.70;;;;;;10352648;28;20292;-77
2022/07/03 16:17:23;;;;;;;2.30;1.25;;;26.40;86.80;;;;;;10353002;28;20481;-78
2022/07/03 16:22:45;;;;;;;4.60;0.90;;;26.30;78.80;;;;;;10360358;28;20244;-76
2022/07/03 16:28:09;;;;;;;0.70;0.70;;;26.20;85.90;;;;;;10359980;28;20264;-77
2022/07/03 16:33:33;;;;;;;1.50;1.10;;;26.10;86.70;;;;;;10360089;28;20240;-79
2022/07/03 16:39:04;;;;;;;2.63;1.20;;;25.90;90.40;;;;;;10360242;28;20209;-78
2022/07/03 16:44:32;;;;;;;1.75;1.02;;;25.80;98.10;;;;;;10360278;28;20214;-79
2022/07/03 16:49:54;;;;;;;1.75;0.80;;;25.70;97.50;;;;;;10360121;28;20241;-77
2022/07/03 16:55:17;;;;;;;3.45;1.20;;;25.70;98.60;;;;;;10326076;28;20569;-77
2022/07/03 17:00:42;;;;;;;4.00;1.10;;;25.60;96.60;;;;;;10370391;28;20205;-79
2022/07/03 17:06:05;;;;;;;2.42;1.33;;;25.60;95.20;;;;;;10359309;28;20516;-79
2022/07/03 17:11:26;;;;;;;1.02;0.80;;;25.40;92.60;;;;;;10360442;28;20249;-77
2022/07/03 17:16:57;;;;;;;1.05;0.98;;;25.30;99.90;;;;;;10359376;28;20261;-76
2022/07/03 17:22:23;;;;;;;1.33;1.08;;;25.30;99.90;;;;;;10358168;28;20213;-77
2022/07/03 17:27:48;;;;;;;3.60;1.10;;;25.00;99.90;;;;;;10358910;28;20218;-77
2022/07/03 17:33:15;;;;;;;1.80;1.25;;;24.90;99.90;;;;;;10357444;28;20240;-77
2022/07/03 17:38:36;;;;;;;2.55;1.30;;;24.70;99.90;;;;;;10358185;28;20547;-77
2022/07/03 17:44:03;;;;;;;3.78;1.20;;;24.60;99.90;;;;;;10358202;28;20205;-79
2022/07/03 17:49:26;;;;;;;2.38;1.70;;;24.50;99.90;;;;;;10357388;28;20238;-78
2022/07/03 17:54:48;;;;;;;1.52;1.13;;;24.50;99.90;;;;;;10357383;28;20197;-79
2022/07/03 18:00:15;;;;;;;2.70;1.48;;;24.30;99.90;;;;;;10342943;28;20202;-78
2022/07/03 18:05:45;;;;;;;2.65;1.58;;;24.20;99.90;;;;;;10357162;28;20194;-77
2022/07/03 18:11:14;;;;;;;2.38;1.55;;;24.10;99.90;;;;;;10357272;28;20536;-77
2022/07/03 18:16:37;;;;;;;4.68;1.73;;;24.00;99.90;;;;;;10355939;28;20218;-78
2022/07/03 18:22:01;;;;;;;5.13;2.22;;;23.90;99.90;;;;;;10355834;28;20198;-80
2022/07/03 18:27:27;;;;;;;2.55;1.88;;;23.90;99.90;;;;;;10358361;28;20205;-80
2022/07/03 18:32:52;;;;;;;2.55;1.55;;;23.80;99.90;;;;;;10369601;28;20292;-77
2022/07/03 18:38:16;;;;;;;2.35;1.55;;;23.70;99.90;;;;;;10341429;28;20210;-78
2022/07/03 18:43:37;;;;;;;2.70;1.10;;;23.60;99.90;;;;;;10355433;28;20459;-79
2022/07/03 18:49:00;;;;;;;1.80;1.00;;;23.40;99.90;;;;;;10355454;28;20298;-79
2022/07/03 18:54:31;;;;;;;3.88;1.30;;;23.20;99.90;;;;;;10355337;28;20205;-81
2022/07/03 19:00:11;;;;;;;1.75;1.20;;;22.90;99.90;;;;;;10338759;28;20260;-76
2022/07/03 19:06:00;;;;;;;7.30;1.40;;;22.80;99.90;;;;;;10355194;28;20194;-77
2022/07/03 19:11:24;;;;;;;3.10;1.25;;;22.70;99.90;;;;;;10355258;28;20218;-76
2022/07/03 19:16:47;;;;;;;2.47;1.55;;;22.60;99.90;;;;;;10354915;28;20457;-79
2022/07/03 19:22:10;;;;;;;1.92;1.30;;;22.60;99.90;;;;;;10355111;28;20241;-80
2022/07/03 19:27:32;;;;;;;1.90;1.20;;;22.40;99.90;;;;;;10339964;28;20239;-77
2022/07/03 19:32:56;;;;;;;2.95;1.52;;;22.40;99.90;;;;;;10339980;28;20248;-78
2022/07/03 19:38:18;;;;;;;2.20;1.50;;;22.30;99.90;;;;;;10354263;28;20201;-77
2022/07/03 19:43:40;;;;;;;3.53;1.73;;;22.20;99.90;;;;;;10354171;28;20265;-77
2022/07/03 19:49:02;;;;;;;3.50;1.80;;;22.00;99.90;;;;;;10354014;28;20555;-77
2022/07/03 19:54:23;;;;;;;7.35;2.25;;;21.90;99.90;;;;;;10327871;28;20205;-78
2022/07/03 19:59:44;;;;;;;4.38;2.20;;;21.80;99.90;;;;;;10364481;28;20212;-80
2022/07/03 20:05:06;;;;;;;3.22;1.90;;;21.70;1.00;;;;;;10361017;28;20252;-79
2022/07/03 20:10:28;;;;;;;3.50;2.25;;;21.80;1.00;;;;;;10361945;28;20232;-80
2022/07/03 20:15:50;;;;;;;6.55;2.10;;;21.60;1.00;;;;;;10361480;28;20194;-76
2022/07/03 20:21:11;;;;;;;4.32;2.28;;;21.50;99.90;;;;;;10347205;28;20206;-76
2022/07/03 20:26:33;;;;;;;4.13;1.80;;;21.40;1.00;;;;;;10360272;28;20209;-78
2022/07/03 20:31:55;;;;;;;3.22;2.20;;;21.20;99.90;;;;;;10360039;28;20391;-77
2022/07/03 20:37:16;;;;;;;3.65;2.08;;;21.20;1.00;;;;;;10332245;28;20426;-77
2022/07/03 20:42:40;;;;;;;3.90;1.60;;;21.30;1.00;;;;;;10360968;28;20194;-79
2022/07/03 20:48:01;;;;;;;5.68;1.80;;;21.20;99.90;;;;;;10345722;28;20241;-77
2022/07/03 20:53:22;;;;;;;4.43;2.00;;;21.20;1.00;;;;;;10358981;28;20288;-77
2022/07/03 20:58:44;;;;;;;3.95;1.60;;;21.00;1.00;;;;;;10376040;28;20387;-80
2022/07/03 21:04:05;;;;;;;3.38;1.85;;;20.90;99.90;;;;;;10359834;28;20196;-76
2022/07/03 21:09:26;;;;;;;7.28;2.13;;;20.80;1.00;;;;;;10359561;28;20220;-80
2022/07/03 21:14:48;;;;;;;3.33;1.90;;;20.70;1.00;;;;;;10359322;28;20216;-76
2022/07/03 21:20:10;;;;;;;3.20;2.05;;;20.60;99.90;;;;;;10359337;28;20237;-77
2022/07/03 21:25:32;;;;;;;3.90;2.17;;;20.60;1.00;;;;;;10359141;28;20505;-77
2022/07/03 21:30:53;;;;;;;4.18;2.42;;;20.50;1.00;;;;;;10358879;28;20226;-79
2022/07/03 21:36:15;;;;;;;4.55;2.33;;;20.50;99.90;;;;;;10358682;28;20485;-78
2022/07/03 21:41:37;;;;;;;3.75;2.10;;;20.40;1.00;;;;;;10358273;28;20508;-79
2022/07/03 21:46:58;;;;;;;2.92;2.20;;;20.30;1.00;;;;;;10357072;28;20245;-77
2022/07/03 21:52:19;;;;;;;4.40;2.28;;;20.30;1.00;;;;;;10357818;28;20229;-80
2022/07/03 21:57:41;;;;;;;3.38;2.10;;;20.20;1.00;;;;;;10374588;28;20447;-80
2022/07/03 22:03:03;;;;;;;4.78;1.98;;;20.10;1.00;;;;;;10357591;28;20206;-76
2022/07/03 22:08:24;;;;;;;3.92;2.50;;;20.10;99.90;;;;;;10356376;28;20214;-78
2022/07/03 22:13:45;;;;;;;3.00;1.98;;;20.00;99.90;;;;;;10356877;28;20217;-76
2022/07/03 22:19:07;;;;;;;5.35;2.05;;;20.00;99.90;;;;;;10356275;28;20193;-79
2022/07/03 22:24:28;;;;;;;4.20;2.08;;;19.90;1.00;;;;;;10356774;28;20395;-80
2022/07/03 22:29:50;;;;;;;3.80;2.45;;;19.70;99.90;;;;;;10357365;28;20214;-78
2022/07/03 22:35:13;;;;;;;2.88;2.13;;;19.60;39.40;;;;;;10370640;28;20244;-79
2022/07/03 22:40:35;;;;;;;3.65;2.00;;;19.50;1.00;;;;;;10356024;28;20194;-77
2022/07/03 22:45:56;;;;;;;2.50;2.30;;;19.40;1.00;;;;;;10354990;28;20237;-79
2022/07/03 22:51:17;;;;;;;2.97;2.33;;;19.30;1.00;;;;;;10354675;28;20226;-76
2022/07/03 22:56:39;;;;;;;3.13;2.30;;;19.30;1.00;;;;;;10370075;28;20484;-79
2022/07/03 23:02:01;;;;;;;4.90;2.60;;;19.30;1.00;;;;;;10300688;28;20202;-77
2022/07/03 23:07:22;;;;;;;2.63;2.08;;;19.30;1.00;;;;;;10327800;28;20245;-77
2022/07/03 23:12:43;;;;;;;4.40;2.38;;;19.30;82.70;;;;;;10313433;28;20544;-76
2022/07/03 23:18:05;;;;;;;3.50;2.67;;;19.30;30.50;;;;;;10313948;28;20198;-78
2022/07/03 23:23:26;;;;;;;2.72;2.35;;;19.20;47.90;;;;;;10313456;28;20294;-79
2022/07/03 23:28:47;;;;;;;4.28;2.72;;;19.20;52.70;;;;;;10304268;28;20529;-76
2022/07/03 23:34:08;;;;;;;3.25;2.40;;;19.20;1.00;;;;;;10327842;28;20229;-77
2022/07/03 23:39:30;;;;;;;3.85;2.50;;;19.10;12.90;;;;;;10367994;28;20497;-78
2022/07/03 23:44:52;;;;;;;4.30;2.63;;;19.00;18.10;;;;;;10368040;28;20228;-76
2022/07/03 23:55:53;;;;;;;3.40;2.30;;;18.90;99.90;;;;;;10344470;28;20203;-77
